• Join FlightAware (Why Join?)
  • Login
  • US Flag 
07:20PM EDT


 

Airport Tracker/Info


-or-


 

Live Flight TrackerFlight Track Log ✈ GJS6221 ✈ 11-Aug-2013 ✈ KLGA - KCLT

Flight Track Log - Related Links

Times and Time Zones

All times are in EDT time to prevent confusion due to time zone crossing. See the GJS6221 flight status page for this flight to view local times or setup timezone preferences in your user account.

Time Position Orientation Groundspeed Altitude Reporting Facility
EDT Latitude Longitude Course Direction KTS MPH feet Rate Location/Type
09:53AM 40.8333 -73.8667 270° West 189 217 2,200  Level New York TRACON
09:54AM 40.8667 -73.9167 311° West 232 267 4,900 2,880 Climbing New York TRACON
09:55AM 40.8667 -74.0000 270° West 247 284 8,000 2,700 Climbing New York TRACON
09:56AM 40.8333 -74.0833 242° Southwest 272 313 10,400 2,400 Climbing New York TRACON
09:57AM 40.7833 -74.1667 232° Southwest 284 327 12,800 1,620 Climbing New York TRACON
09:59AM 40.5333 -74.5797 270° West  Level FlightAware Approximate
09:59AM 40.6961 -74.3758 241° Southwest 328 377 15,500  Level New York Center
10:00AM 40.6300 -74.4925 233° Southwest 357 411 17,400 1,500 Climbing New York Center
10:01AM 40.5750 -74.5853 232° Southwest 362 417 18,600 1,260 Climbing New York Center
10:02AM 40.5131 -74.6911 232° Southwest 367 422 19,900 1,260 Climbing New York Center
10:03AM 40.4469 -74.8017 232° Southwest 379 436 21,200 1,260 Climbing New York Center
10:04AM 40.3806 -74.9125 232° Southwest 384 442 22,500 1,260 Climbing New York Center
10:05AM 40.3119 -75.0281 232° Southwest 397 457 23,700 1,140 Climbing New York Center
10:06AM 40.2408 -75.1461 232° Southwest 408 470 24,800 1,080 Climbing New York Center
10:07AM 40.1717 -75.2639 232° Southwest 414 476 25,900 1,080 Climbing New York Center
10:08AM 40.0961 -75.3867 231° Southwest 414 476 27,000 1,200 Climbing New York Center
10:09AM 40.0181 -75.5169 232° Southwest 424 488 28,300 1,200 Climbing New York Center
10:10AM 39.9467 -75.6339 231° Southwest 424 488 29,400 840 Climbing New York Center
10:12AM 39.8383 -75.8022 230° Southwest 432 497 30,500 780 Climbing Washington Center
10:13AM 39.7672 -75.9181 231° Southwest 427 491 31,400 900 Climbing Washington Center
10:14AM 39.6961 -76.0283 230° Southwest 421 484 32,400 840 Climbing Washington Center
10:15AM 39.6247 -76.1411 231° Southwest 421 484 33,200 720 Climbing Washington Center
10:16AM 39.5556 -76.2536 231° Southwest 414 476 33,900 660 Climbing Washington Center
10:17AM 39.4819 -76.3606 228° Southwest 409 471 34,500 600 Climbing Washington Center
10:18AM 39.4103 -76.4725 230° Southwest 403 464 35,100 540 Climbing Washington Center
10:19AM 39.3386 -76.5792 229° Southwest 403 464 35,700 420 Climbing Washington Center
10:20AM 39.2689 -76.6908 231° Southwest 403 464 36,000 120 Climbing Washington Center
10:21AM 39.1969 -76.8022 230° Southwest 403 464 36,000  Level Washington Center
10:22AM 39.1269 -76.9161 232° Southwest 403 464 36,000  Level Washington Center
10:23AM 39.0550 -77.0217 229° Southwest 403 464 36,000  Level Washington Center
10:24AM 38.9725 -77.1161 222° Southwest 403 464 36,000  Level Washington Center
10:25AM 38.8858 -77.2078 219° Southwest 403 464 36,000  Level Washington Center
10:26AM 38.8011 -77.3044 222° Southwest 403 464 36,000  Level Washington Center
10:27AM 38.7144 -77.3956 219° Southwest 408 470 36,000  Level Washington Center
10:28AM 38.6189 -77.4994 220° Southwest 413 475 36,000  Level Washington Center
10:29AM 38.5319 -77.5956 221° Southwest 413 475 36,000  Level Washington Center
10:30AM 38.4469 -77.6886 221° Southwest 413 475 36,000  Level Washington Center
10:31AM 38.3597 -77.7814 220° Southwest 413 475 36,000  Level Washington Center
10:32AM 38.2744 -77.8769 221° Southwest 413 475 36,000  Level Washington Center
10:33AM 38.1872 -77.9719 221° Southwest 413 475 36,000  Level Washington Center
10:34AM 38.1017 -78.0694 222° Southwest 413 475 36,000  Level Washington Center
10:35AM 38.0164 -78.1642 221° Southwest 413 475 36,000  Level Washington Center
10:36AM 37.9372 -78.2589 223° Southwest 408 470 36,000  Level Washington Center
10:37AM 37.8581 -78.3456 221° Southwest 408 470 36,000  Level Washington Center
10:38AM 37.7722 -78.4422 222° Southwest 414 476 36,000  Level Washington Center
10:39AM 37.6867 -78.5361 221° Southwest 414 476 36,000  Level Washington Center
10:40AM 37.5967 -78.6322 220° Southwest 420 483 36,000  Level Washington Center
10:41AM 37.5000 -78.7411 222° Southwest 420 483 36,000 -180 Level Washington Center
10:42AM 37.4100 -78.8339 219° Southwest 420 483 35,700 -660 Descending Washington Center
10:43AM 37.3194 -78.9347 222° Southwest 425 489 34,700 -1,020 Descending Washington Center
10:44AM 37.2119 -79.0500 221° Southwest 425 489 33,500 -1,020 Descending Washington Center
10:45AM 37.1300 -79.1375 220° Southwest 425 489 32,500 -1,020 Descending Washington Center
10:46AM 37.0417 -79.2347 221° Southwest 425 489 31,500 -960 Descending Washington Center
10:47AM 36.9511 -79.3292 220° Southwest 425 489 30,600 -1,020 Descending Washington Center
10:48AM 36.8603 -79.4286 221° Southwest 425 489 29,500 -1,260 Descending Washington Center
10:49AM 36.7717 -79.5228 220° Southwest 425 489 28,200 -1,380 Descending Washington Center
10:51AM 36.5628 -79.7431 220° Southwest 439 505 25,100 -1,320 Descending Atlanta Center
10:52AM 36.4883 -79.8219 220° Southwest 422 486 24,000 -1,140 Descending Atlanta Center
10:53AM 36.4081 -79.9086 221° Southwest 409 471 22,900 -1,020 Descending Atlanta Center
10:54AM 36.3272 -79.9903 219° Southwest 393 452 22,000 -480 Descending Atlanta Center
10:55AM 36.2342 -80.0747 216° Southwest 386 444 22,000 -240 Level Atlanta Center
10:56AM 36.1508 -80.1431 214° Southwest 375 432 21,600 -1,320 Descending Atlanta Center
10:57AM 36.0633 -80.2167 214° Southwest 375 432 19,400 -2,100 Descending Atlanta Center
10:58AM 35.9822 -80.2872 215° Southwest 370 426 17,400 -2,280 Descending Atlanta Center
10:59AM 35.9336 -80.3331 217° Southwest 357 411 15,900 -2,160 Descending Atlanta Center
11:00AM 35.8297 -80.4222 215° Southwest 322 371 13,200 -1,200 Descending Atlanta Center
11:01AM 35.7583 -80.4792 213° Southwest 315 362 13,000 -720 Descending Atlanta Center
11:02AM 35.6972 -80.5253 212° Southwest 298 343 11,800 -1,740 Descending Atlanta Center
11:03AM 35.6083 -80.5522 194° South 290 334 9,500 -1,920 Descending Atlanta Center
11:04AM 35.5661 -80.6075 227° Southwest 243 280 8,000 -1,560 Descending Atlanta Center
11:05AM 35.5264 -80.6856 238° Southwest 260 299 6,500 -1,020 Descending Atlanta Center
11:06AM 35.4869 -80.7664 239° Southwest 277 319 6,000 -960 Descending Atlanta Center
11:07AM 35.4433 -80.8522 238° Southwest 277 319 4,600 -1,440 Descending Atlanta Center
11:08AM 35.4011 -80.9228 234° Southwest 272 313 3,200 -780 Descending Atlanta Center
11:09AM 35.3414 -80.9478 199° South 194 223 3,000 -540 Descending Atlanta Center
11:10AM 35.2933 -80.9444 177° South 143 165 2,100 -780 Descending Atlanta Center
11:11AM 35.2536 -80.9408 176° South 137 158 1,400 -720 Descending Atlanta Center
11:13AM 35.2137 -80.9491 184° South  Level Estimated
11:20AM 35.2137 -80.9491 184° South  Level Estimated